| time (UTC) | temp F | wind direction | speed MPH | gust MPH | rain 1hr in | rain 24hr in | rain mn in | humidity % | barometer mb |
| 20260505152920 | 69 | 230 | 0.0 | 0.0 | 0.00 | 0.00 | 0.00 | 60 | 1011.7 |
| 20260505152419 | 69 | 203 | 0.0 | 0.0 | 0.00 | 0.00 | 0.00 | 60 | 1011.6 |
| 20260505151919 | 69 | 229 | 0.0 | 0.0 | 0.00 | 0.00 | 0.00 | 60 | 1011.5 |
| 20260505151418 | 69 | 191 | 0.0 | 0.0 | 0.00 | 0.00 | 0.00 | 59 | 1011.4 |
| 20260505150918 | 69 | 209 | 0.0 | 0.0 | 0.00 | 0.00 | 0.00 | 60 | 1011.4 |
| 20260505150418 | 69 | 249 | 0.0 | 0.0 | 0.00 | 0.00 | 0.00 | 60 | 1011.3 |
| 20260505140416 | 67 | 220 | 0.0 | 0.0 | 0.00 | 0.00 | 0.00 | 62 | 1011.1 |
| 20260505124916 | 63 | 232 | 0.0 | 0.0 | 0.00 | 0.00 | 0.00 | 67 | 1011.4 |
| 20260505124912 | 63 | 238 | 0.0 | 0.0 | 0.00 | 0.00 | 0.00 | 67 | 1011.3 |
| 20260505123912 | 63 | 246 | 0.0 | 0.0 | 0.00 | 0.00 | 0.00 | 68 | 1011.4 |
| 20260505123412 | 62 | 246 | 0.0 | 0.0 | 0.00 | 0.00 | 0.00 | 68 | 1011.4 |
| 20260505122912 | 62 | 248 | 0.0 | 0.0 | 0.00 | 0.00 | 0.00 | 69 | 1011.4 |
| 20260505122417 | 62 | 248 | 0.0 | 0.0 | 0.00 | 0.00 | 0.00 | 69 | 1011.3 |
| 20260505122412 | 62 | 248 | 0.0 | 0.0 | 0.00 | 0.00 | 0.00 | 69 | 1011.3 |
| 20260505121413 | 61 | 248 | 0.0 | 0.0 | 0.00 | 0.00 | 0.00 | 70 | 1011.2 |
| 20260505120912 | 61 | 249 | 0.0 | 0.0 | 0.00 | 0.00 | 0.00 | 71 | 1011.2 |
| 20260505120416 | 60 | 247 | 0.0 | 0.0 | 0.00 | 0.00 | 0.00 | 72 | 1011.1 |
| 20260505120412 | 61 | 249 | 0.0 | 0.0 | 0.00 | 0.00 | 0.00 | 71 | 1011.1 |
| 20260505115411 | 60 | 247 | 0.0 | 0.0 | 0.00 | 0.00 | 0.00 | 72 | 1011.0 |
| 20260505114911 | 60 | 247 | 0.0 | 0.0 | 0.00 | 0.00 | 0.00 | 73 | 1011.0 |
| 20260505114412 | 59 | 247 | 0.0 | 0.0 | 0.00 | 0.00 | 0.00 | 73 | 1010.9 |
| 20260505113917 | 59 | 247 | 0.0 | 0.0 | 0.00 | 0.00 | 0.00 | 74 | 1010.7 |
| 20260505113913 | 59 | 247 | 0.0 | 0.0 | 0.00 | 0.00 | 0.00 | 74 | 1010.7 |
| 20260505112911 | 59 | 247 | 0.0 | 0.0 | 0.00 | 0.00 | 0.00 | 73 | 1010.8 |
| 20260505112416 | 60 | 247 | 0.0 | 0.0 | 0.00 | 0.00 | 0.00 | 71 | 1010.7 |
| 20260505112411 | 60 | 247 | 0.0 | 0.0 | 0.00 | 0.00 | 0.00 | 73 | 1010.8 |
| 20260505111911 | 60 | 247 | 0.0 | 0.0 | 0.00 | 0.00 | 0.00 | 72 | 1010.8 |
| 20260505110917 | 60 | 247 | 0.0 | 0.0 | 0.00 | 0.00 | 0.00 | 69 | 1010.8 |
| 20260505110912 | 60 | 247 | 0.0 | 0.0 | 0.00 | 0.00 | 0.00 | 71 | 1010.8 |
| 20260505110517 | 60 | 248 | 0.0 | 0.0 | 0.00 | 0.00 | 0.00 | 69 | 1010.8 |
| 20260505101910 | 62 | 244 | 0.0 | 0.0 | 0.00 | 0.00 | 0.00 | 66 | 1010.3 |
| 20260505101407 | 62 | 246 | 0.0 | 0.0 | 0.00 | 0.00 | 0.00 | 66 | 1010.3 |
| 20260505100912 | 62 | 265 | 0.0 | 0.0 | 0.00 | 0.00 | 0.00 | 65 | 1010.2 |
| 20260505100907 | 62 | 261 | 0.0 | 0.0 | 0.00 | 0.00 | 0.00 | 65 | 1010.2 |
| 20260505095907 | 62 | 269 | 0.0 | 0.0 | 0.00 | 0.00 | 0.00 | 65 | 1010.1 |
| 20260505095411 | 62 | 253 | 0.0 | 0.0 | 0.00 | 0.00 | 0.00 | 65 | 1010.0 |
| 20260505095406 | 62 | 267 | 0.0 | 0.0 | 0.00 | 0.00 | 0.00 | 65 | 1010.1 |
| 20260505094408 | 62 | 253 | 0.0 | 0.0 | 0.00 | 0.00 | 0.00 | 64 | 1009.9 |
| 20260505094404 | 63 | 264 | 0.0 | 0.0 | 0.00 | 0.00 | 0.00 | 64 | 1010.1 |
| 20260505094007 | 62 | 256 | 0.0 | 0.0 | 0.00 | 0.00 | 0.00 | 64 | 1009.9 |
| 20260505093508 | 62 | 256 | 0.0 | 0.0 | 0.00 | 0.00 | 0.00 | 64 | 1009.9 |
| 20260505092404 | 63 | 244 | 0.0 | 0.0 | 0.00 | 0.00 | 0.00 | 63 | 1010.0 |
| 20260505092359 | 63 | 265 | 0.0 | 0.0 | 0.00 | 0.00 | 0.00 | 63 | 1010.1 |
| 20260505092004 | 63 | 249 | 0.0 | 0.0 | 0.00 | 0.00 | 0.00 | 63 | 1010.0 |
| 20260505090903 | 63 | 250 | 0.0 | 0.0 | 0.00 | 0.00 | 0.00 | 63 | 1010.1 |
| 20260505090359 | 64 | 259 | 0.0 | 0.0 | 0.00 | 0.00 | 0.00 | 62 | 1010.0 |
| 20260505085857 | 64 | 243 | 0.0 | 0.0 | 0.00 | 0.00 | 0.00 | 62 | 1009.9 |
| 20260505085357 | 64 | 240 | 0.0 | 0.0 | 0.00 | 0.00 | 0.00 | 62 | 1009.9 |
| 20260505084857 | 64 | 249 | 0.0 | 0.0 | 0.00 | 0.00 | 0.00 | 62 | 1010.0 |
| 20260505084357 | 64 | 217 | 0.0 | 0.0 | 0.00 | 0.00 | 0.00 | 62 | 1010.0 |
| 20260505083857 | 64 | 274 | 0.0 | 0.0 | 0.00 | 0.01 | 0.00 | 62 | 1009.9 |
| 20260505083357 | 64 | 229 | 0.0 | 0.0 | 0.00 | 0.01 | 0.00 | 62 | 1009.8 |
| 20260505082858 | 64 | 228 | 0.0 | 0.0 | 0.00 | 0.01 | 0.00 | 62 | 1009.9 |
| 20260505082358 | 64 | 222 | 0.0 | 0.0 | 0.00 | 0.01 | 0.00 | 62 | 1009.9 |
| 20260505081859 | 64 | 214 | 0.0 | 0.0 | 0.00 | 0.01 | 0.00 | 62 | 1009.8 |
| 20260505081356 | 63 | 244 | 0.0 | 0.0 | 0.00 | 0.01 | 0.00 | 63 | 1009.9 |
| 20260505080856 | 64 | 241 | 0.0 | 0.0 | 0.00 | 0.01 | 0.00 | 63 | 1009.9 |
| 20260505080355 | 64 | 237 | 0.0 | 0.0 | 0.00 | 0.01 | 0.00 | 62 | 1009.9 |
| 20260505075855 | 64 | 261 | 0.0 | 0.0 | 0.00 | 0.01 | 0.00 | 62 | 1009.8 |
| 20260505075355 | 64 | 228 | 0.0 | 0.0 | 0.00 | 0.01 | 0.00 | 62 | 1009.7 |
| 20260505074854 | 64 | 251 | 0.0 | 0.0 | 0.00 | 0.01 | 0.00 | 63 | 1009.7 |
| 20260505074356 | 64 | 250 | 0.0 | 0.0 | 0.00 | 0.01 | 0.00 | 63 | 1009.5 |
| 20260505074352 | 64 | 226 | 0.0 | 0.0 | 0.00 | 0.01 | 0.00 | 63 | 1009.7 |
| 20260505073352 | 64 | 223 | 0.0 | 0.0 | 0.00 | 0.01 | 0.00 | 63 | 1009.5 |
| 20260505072850 | 64 | 265 | 0.0 | 0.0 | 0.00 | 0.02 | 0.00 | 63 | 1009.5 |
| 20260505072350 | 64 | 259 | 0.0 | 0.0 | 0.00 | 0.02 | 0.00 | 62 | 1009.5 |
| 20260505071850 | 64 | 257 | 0.0 | 0.0 | 0.00 | 0.02 | 0.00 | 62 | 1009.5 |
| 20260505071351 | 64 | 259 | 0.0 | 0.0 | 0.00 | 0.02 | 0.00 | 61 | 1009.5 |
| 20260505070850 | 64 | 222 | 0.0 | 0.0 | 0.00 | 0.02 | 0.00 | 62 | 1009.5 |
| 20260505070350 | 64 | 250 | 0.0 | 0.0 | 0.00 | 0.02 | 0.00 | 62 | 1009.4 |
| 20260505065851 | 64 | 243 | 0.0 | 0.0 | 0.00 | 0.02 | 0.00 | 62 | 1009.6 |
| 20260505065350 | 64 | 250 | 0.0 | 0.0 | 0.00 | 0.02 | 0.00 | 62 | 1009.7 |
| 20260505064850 | 65 | 256 | 0.0 | 0.0 | 0.00 | 0.02 | 0.00 | 61 | 1009.6 |
| 20260505064348 | 65 | 255 | 0.0 | 0.0 | 0.00 | 0.02 | 0.00 | 61 | 1009.7 |
| 20260505063849 | 65 | 237 | 0.0 | 0.0 | 0.00 | 0.02 | 0.00 | 61 | 1009.7 |
| 20260505063348 | 65 | 240 | 0.0 | 0.0 | 0.00 | 0.02 | 0.00 | 61 | 1009.6 |
| 20260505062848 | 65 | 244 | 0.0 | 0.0 | 0.00 | 0.02 | 0.00 | 61 | 1009.7 |
| 20260505062353 | 65 | 254 | 0.0 | 0.0 | 0.00 | 0.02 | 0.00 | 61 | 1009.7 |
| 20260505061849 | 65 | 249 | 0.0 | 0.0 | 0.00 | 0.02 | 0.00 | 61 | 1009.7 |
| 20260505061348 | 65 | 237 | 0.0 | 0.0 | 0.00 | 0.02 | 0.00 | 61 | 1009.8 |
| 20260505060848 | 65 | 248 | 0.0 | 0.0 | 0.00 | 0.02 | 0.00 | 60 | 1009.8 |
| 20260505060354 | 65 | 234 | 0.0 | 0.0 | 0.00 | 0.02 | 0.00 | 60 | 1009.8 |
| 20260505055848 | 66 | 232 | 0.0 | 0.0 | 0.00 | 0.02 | 0.00 | 60 | 1009.8 |
| 20260505055345 | 66 | 234 | 0.0 | 0.0 | 0.00 | 0.02 | 0.00 | 60 | 1009.9 |
| 20260505054846 | 66 | 235 | 0.0 | 0.0 | 0.00 | 0.02 | 0.00 | 60 | 1009.9 |
| 20260505054346 | 66 | 238 | 0.0 | 0.0 | 0.00 | 0.02 | 0.00 | 59 | 1009.9 |
| 20260505053846 | 66 | 238 | 0.0 | 0.0 | 0.00 | 0.02 | 0.00 | 59 | 1010.0 |
| 20260505053350 | 67 | 238 | 0.0 | 0.0 | 0.00 | 0.02 | 0.00 | 58 | 1010.0 |
| 20260505053345 | 67 | 238 | 0.0 | 0.0 | 0.00 | 0.02 | 0.00 | 59 | 1010.0 |
| 20260505052347 | 67 | 238 | 0.0 | 0.0 | 0.00 | 0.02 | 0.00 | 58 | 1010.0 |
| 20260505051846 | 67 | 238 | 0.0 | 0.0 | 0.00 | 0.02 | 0.00 | 58 | 1009.9 |
| 20260505051351 | 68 | 228 | 0.0 | 0.0 | 0.00 | 0.02 | 0.00 | 56 | 1009.8 |
| 20260505051345 | 67 | 238 | 0.0 | 0.0 | 0.00 | 0.02 | 0.00 | 57 | 1009.9 |
| 20260505050844 | 68 | 215 | 0.0 | 0.0 | 0.00 | 0.02 | 0.00 | 57 | 1009.8 |
| 20260505050342 | 68 | 238 | 0.0 | 0.0 | 0.00 | 0.02 | 0.00 | 57 | 1009.9 |
| 20260505041340 | 69 | 238 | 0.0 | 0.0 | 0.00 | 0.02 | 0.00 | 55 | 1009.3 |
| 20260505040840 | 69 | 217 | 0.0 | 0.0 | 0.00 | 0.02 | 0.00 | 54 | 1009.4 |
| 20260505040340 | 69 | 226 | 0.0 | 0.0 | 0.00 | 0.02 | 0.00 | 54 | 1009.3 |
| 20260505035839 | 69 | 223 | 0.0 | 0.0 | 0.00 | 0.02 | 0.02 | 54 | 1009.1 |
| 20260505035340 | 70 | 231 | 0.0 | 0.0 | 0.00 | 0.02 | 0.02 | 54 | 1009.1 |
| 20260505034840 | 70 | 233 | 0.0 | 0.0 | 0.00 | 0.02 | 0.02 | 54 | 1009.1 |
| 20260505034339 | 70 | 235 | 0.0 | 0.0 | 0.00 | 0.02 | 0.02 | 54 | 1008.9 |
| 20260505033845 | 70 | 256 | 0.0 | 0.0 | 0.00 | 0.02 | 0.02 | 53 | 1008.9 |
| 20260505033840 | 70 | 181 | 0.0 | 0.0 | 0.00 | 0.02 | 0.02 | 53 | 1009.0 |
| 20260505032839 | 70 | 189 | 0.0 | 0.0 | 0.00 | 0.02 | 0.02 | 53 | 1009.0 |
| 20260505032340 | 70 | 217 | 0.0 | 0.0 | 0.00 | 0.02 | 0.02 | 53 | 1008.9 |
| 20260505031839 | 71 | 199 | 0.0 | 0.0 | 0.00 | 0.02 | 0.02 | 53 | 1008.8 |
| 20260505031340 | 71 | 167 | 0.0 | 0.0 | 0.00 | 0.02 | 0.02 | 52 | 1008.7 |
| 20260505030840 | 71 | 211 | 0.0 | 0.0 | 0.00 | 0.02 | 0.02 | 52 | 1008.6 |
| 20260505030340 | 71 | 209 | 0.0 | 0.0 | 0.00 | 0.02 | 0.02 | 52 | 1008.6 |
| 20260505025840 | 71 | 214 | 0.0 | 0.0 | 0.00 | 0.02 | 0.02 | 52 | 1008.6 |
| 20260505025340 | 71 | 202 | 0.0 | 0.0 | 0.00 | 0.02 | 0.02 | 52 | 1008.7 |
| 20260505024839 | 71 | 235 | 0.0 | 0.0 | 0.00 | 0.02 | 0.02 | 52 | 1008.6 |
| 20260505024340 | 71 | 208 | 0.0 | 0.0 | 0.00 | 0.02 | 0.02 | 52 | 1008.6 |
| 20260505023837 | 71 | 161 | 0.0 | 0.0 | 0.00 | 0.02 | 0.02 | 51 | 1008.4 |
| 20260505023338 | 71 | 202 | 0.0 | 0.0 | 0.00 | 0.02 | 0.02 | 50 | 1008.4 |
| 20260505022838 | 71 | 209 | 0.0 | 0.0 | 0.00 | 0.02 | 0.02 | 50 | 1008.3 |
| 20260505022337 | 72 | 236 | 0.0 | 0.0 | 0.00 | 0.02 | 0.02 | 49 | 1008.4 |
| 20260505021838 | 72 | 209 | 0.0 | 0.0 | 0.00 | 0.02 | 0.02 | 49 | 1008.3 |
| 20260505021337 | 72 | 184 | 0.0 | 0.0 | 0.00 | 0.02 | 0.02 | 48 | 1008.1 |
| 20260505020838 | 72 | 214 | 0.0 | 0.0 | 0.00 | 0.02 | 0.02 | 48 | 1008.1 |
| 20260505020337 | 73 | 202 | 0.0 | 0.0 | 0.00 | 0.02 | 0.02 | 48 | 1007.9 |
| 20260505015837 | 73 | 227 | 0.0 | 0.0 | 0.00 | 0.02 | 0.02 | 48 | 1007.9 |
| 20260505015336 | 72 | 197 | 0.0 | 0.0 | 0.00 | 0.02 | 0.02 | 48 | 1007.7 |
| 20260505014837 | 73 | 189 | 0.0 | 0.0 | 0.00 | 0.02 | 0.02 | 48 | 1007.8 |
| 20260505014338 | 73 | 199 | 0.0 | 0.0 | 0.00 | 0.02 | 0.02 | 48 | 1007.8 |
| 20260505013836 | 73 | 170 | 0.0 | 0.0 | 0.00 | 0.02 | 0.02 | 48 | 1007.9 |
| 20260505013336 | 73 | 174 | 0.0 | 0.0 | 0.00 | 0.02 | 0.02 | 48 | 1007.9 |
| 20260505012835 | 73 | 190 | 0.0 | 0.0 | 0.00 | 0.02 | 0.02 | 48 | 1008.0 |
| 20260505012335 | 73 | 214 | 0.0 | 0.0 | 0.00 | 0.02 | 0.02 | 48 | 1008.0 |
| 20260505011835 | 73 | 171 | 0.0 | 0.0 | 0.00 | 0.02 | 0.02 | 48 | 1008.0 |
| 20260505011335 | 73 | 209 | 0.0 | 0.0 | 0.00 | 0.02 | 0.02 | 48 | 1008.0 |
| 20260505010835 | 73 | 177 | 0.0 | 0.0 | 0.00 | 0.02 | 0.02 | 48 | 1008.1 |
| 20260505010337 | 73 | 191 | 0.0 | 0.0 | 0.00 | 0.02 | 0.02 | 48 | 1008.1 |
| 20260505005837 | 73 | 216 | 0.0 | 0.0 | 0.00 | 0.02 | 0.02 | 48 | 1008.1 |
| 20260505005335 | 73 | 196 | 0.0 | 0.0 | 0.00 | 0.02 | 0.02 | 47 | 1008.1 |
| 20260505004833 | 74 | 216 | 0.0 | 0.0 | 0.00 | 0.02 | 0.02 | 47 | 1008.1 |
| 20260505004333 | 74 | 215 | 0.0 | 0.0 | 0.00 | 0.02 | 0.02 | 47 | 1008.1 |
| 20260505003837 | 74 | 214 | 0.0 | 0.0 | 0.00 | 0.02 | 0.02 | 47 | 1008.3 |
| 20260505003833 | 74 | 231 | 0.0 | 0.0 | 0.00 | 0.02 | 0.02 | 47 | 1008.1 |
| 20260505002833 | 74 | 231 | 0.0 | 0.0 | 0.00 | 0.02 | 0.02 | 47 | 1008.3 |
| 20260505002339 | 75 | 209 | 0.0 | 0.0 | 0.00 | 0.02 | 0.02 | 46 | 1008.1 |
| 20260505002335 | 75 | 225 | 0.0 | 0.0 | 0.00 | 0.02 | 0.02 | 46 | 1008.1 |
| 20260505001333 | 75 | 181 | 0.0 | 0.0 | 0.00 | 0.02 | 0.02 | 45 | 1008.1 |
| 20260505000831 | 75 | 225 | 0.0 | 0.0 | 0.00 | 0.02 | 0.02 | 46 | 1008.1 |
| 20260505000331 | 76 | 203 | 0.0 | 0.0 | 0.00 | 0.02 | 0.02 | 45 | 1008.1 |
| 20260504235831 | 76 | 215 | 0.0 | 0.0 | 0.00 | 0.02 | 0.02 | 45 | 1008.1 |
| 20260504235331 | 76 | 197 | 0.0 | 0.0 | 0.00 | 0.02 | 0.02 | 45 | 1008.1 |
| 20260504234831 | 76 | 180 | 0.0 | 0.0 | 0.00 | 0.02 | 0.02 | 44 | 1008.3 |
| 20260504234331 | 76 | 208 | 0.0 | 0.0 | 0.00 | 0.02 | 0.02 | 45 | 1008.4 |
| 20260504233837 | 77 | 201 | 0.0 | 0.0 | 0.00 | 0.02 | 0.02 | 44 | 1008.4 |
| 20260504233333 | 77 | 184 | 0.0 | 0.0 | 0.00 | 0.02 | 0.02 | 45 | 1008.5 |
| 20260504233329 | 77 | 198 | 0.0 | 0.0 | 0.00 | 0.02 | 0.02 | 44 | 1008.5 |
| 20260504232333 | 77 | 203 | 0.0 | 0.0 | 0.00 | 0.02 | 0.02 | 45 | 1008.6 |
| 20260504232329 | 77 | 206 | 0.0 | 0.0 | 0.00 | 0.02 | 0.02 | 45 | 1008.5 |
| 20260504231329 | 77 | 220 | 0.0 | 0.0 | 0.00 | 0.02 | 0.02 | 46 | 1008.5 |
| 20260504230829 | 77 | 200 | 0.0 | 0.0 | 0.00 | 0.02 | 0.02 | 45 | 1008.5 |
| 20260504230329 | 77 | 226 | 0.0 | 0.0 | 0.00 | 0.02 | 0.02 | 45 | 1008.6 |
| 20260504225829 | 77 | 236 | 0.0 | 0.0 | 0.00 | 0.02 | 0.02 | 45 | 1008.7 |
| 20260504225329 | 77 | 191 | 0.0 | 0.0 | 0.00 | 0.02 | 0.02 | 44 | 1008.7 |
| 20260504224828 | 77 | 234 | 0.0 | 0.0 | 0.00 | 0.02 | 0.02 | 44 | 1008.8 |
| 20260504224326 | 77 | 216 | 0.0 | 0.0 | 0.00 | 0.02 | 0.02 | 44 | 1008.7 |
| 20260504223827 | 78 | 165 | 0.0 | 0.0 | 0.00 | 0.02 | 0.02 | 43 | 1008.8 |
| 20260504223327 | 78 | 232 | 0.0 | 0.0 | 0.00 | 0.02 | 0.02 | 42 | 1008.8 |
| 20260504222827 | 78 | 230 | 0.0 | 0.0 | 0.00 | 0.02 | 0.02 | 43 | 1008.7 |
| 20260504222327 | 78 | 175 | 0.0 | 0.0 | 0.00 | 0.02 | 0.02 | 42 | 1008.8 |
| 20260504221828 | 78 | 257 | 0.0 | 0.0 | 0.00 | 0.02 | 0.02 | 41 | 1008.8 |
| 20260504221327 | 78 | 218 | 0.0 | 0.0 | 0.00 | 0.02 | 0.02 | 41 | 1008.7 |
| 20260504220828 | 78 | 238 | 0.0 | 0.0 | 0.00 | 0.02 | 0.02 | 41 | 1008.7 |
| 20260504220327 | 78 | 225 | 0.0 | 0.0 | 0.00 | 0.02 | 0.02 | 41 | 1008.7 |
| 20260504215827 | 78 | 252 | 0.0 | 0.0 | 0.00 | 0.02 | 0.02 | 41 | 1008.8 |
| 20260504215324 | 78 | 235 | 0.0 | 0.0 | 0.00 | 0.02 | 0.02 | 40 | 1008.7 |
| 20260504214825 | 78 | 238 | 0.0 | 0.0 | 0.00 | 0.02 | 0.02 | 39 | 1008.8 |
| 20260504214326 | 78 | 244 | 0.0 | 0.0 | 0.00 | 0.02 | 0.02 | 39 | 1008.8 |
| 20260504213826 | 78 | 277 | 0.0 | 0.0 | 0.00 | 0.02 | 0.02 | 40 | 1008.8 |
| 20260504213324 | 78 | 203 | 0.0 | 0.0 | 0.00 | 0.02 | 0.02 | 40 | 1008.7 |
| 20260504212825 | 78 | 211 | 0.0 | 0.0 | 0.00 | 0.02 | 0.02 | 41 | 1008.7 |
| 20260504212325 | 78 | 178 | 0.0 | 0.0 | 0.00 | 0.02 | 0.02 | 41 | 1008.7 |
| 20260504211824 | 78 | 259 | 0.0 | 0.0 | 0.00 | 0.02 | 0.02 | 40 | 1008.7 |
| 20260504211325 | 79 | 230 | 0.0 | 0.0 | 0.00 | 0.02 | 0.02 | 41 | 1008.6 |
| 20260504210824 | 79 | 246 | 0.0 | 0.0 | 0.00 | 0.02 | 0.02 | 40 | 1008.6 |
| 20260504210323 | 79 | 200 | 0.0 | 0.0 | 0.00 | 0.02 | 0.02 | 41 | 1008.6 |
| 20260504205821 | 79 | 207 | 0.0 | 0.0 | 0.00 | 0.02 | 0.02 | 42 | 1008.5 |
| 20260504205322 | 78 | 213 | 0.0 | 0.0 | 0.00 | 0.02 | 0.02 | 43 | 1008.7 |
| 20260504204823 | 79 | 204 | 0.0 | 0.0 | 0.00 | 0.02 | 0.02 | 42 | 1008.7 |
| 20260504204819 | 79 | 229 | 0.0 | 0.0 | 0.00 | 0.02 | 0.02 | 43 | 1008.7 |
| 20260504203823 | 79 | 205 | 0.0 | 0.0 | 0.00 | 0.02 | 0.02 | 42 | 1008.9 |
| 20260504203819 | 79 | 235 | 0.0 | 0.0 | 0.00 | 0.02 | 0.02 | 42 | 1008.8 |
| 20260504202819 | 78 | 159 | 0.0 | 0.0 | 0.00 | 0.02 | 0.02 | 44 | 1008.8 |
| 20260504202318 | 78 | 200 | 0.0 | 0.0 | 0.00 | 0.02 | 0.02 | 44 | 1009.0 |
| 20260504201819 | 78 | 226 | 0.0 | 0.0 | 0.00 | 0.02 | 0.02 | 43 | 1009.0 |
| 20260504201319 | 78 | 218 | 0.0 | 0.0 | 0.00 | 0.02 | 0.02 | 43 | 1009.1 |
| 20260504200819 | 78 | 168 | 0.0 | 0.0 | 0.00 | 0.02 | 0.02 | 45 | 1009.2 |
| 20260504200319 | 78 | 164 | 0.0 | 0.0 | 0.00 | 0.02 | 0.02 | 45 | 1009.4 |
| 20260504195818 | 78 | 183 | 0.0 | 0.0 | 0.00 | 0.02 | 0.02 | 44 | 1009.6 |
| 20260504195324 | 78 | 308 | 0.0 | 0.0 | 0.00 | 0.02 | 0.02 | 45 | 1009.5 |
| 20260504194825 | 77 | 238 | 0.0 | 0.0 | 0.00 | 0.02 | 0.02 | 45 | 1009.9 |
| 20260504194820 | 78 | 225 | 0.0 | 0.0 | 0.00 | 0.02 | 0.02 | 46 | 1009.7 |
| 20260504193822 | 78 | 263 | 0.0 | 0.0 | 0.00 | 0.02 | 0.02 | 45 | 1009.9 |
| 20260504193818 | 77 | 172 | 0.0 | 0.0 | 0.00 | 0.02 | 0.02 | 45 | 1010.0 |
| 20260504192819 | 77 | 183 | 0.0 | 0.0 | 0.00 | 0.02 | 0.02 | 46 | 1010.0 |
| 20260504192318 | 77 | 226 | 0.0 | 0.0 | 0.00 | 0.02 | 0.02 | 46 | 1010.1 |
| 20260504191824 | 77 | 228 | 0.0 | 0.0 | 0.00 | 0.02 | 0.02 | 47 | 1010.2 |
| 20260504191820 | 77 | 234 | 0.0 | 0.0 | 0.00 | 0.02 | 0.02 | 45 | 1010.2 |
| 20260504190818 | 77 | 270 | 0.0 | 0.0 | 0.00 | 0.02 | 0.02 | 47 | 1010.2 |
| 20260504190319 | 76 | 261 | 0.0 | 0.0 | 0.00 | 0.02 | 0.02 | 47 | 1010.3 |
| 20260504185819 | 76 | 232 | 0.0 | 0.0 | 0.00 | 0.02 | 0.02 | 46 | 1010.4 |
| 20260504185318 | 76 | 216 | 0.0 | 0.0 | 0.00 | 0.02 | 0.02 | 48 | 1010.4 |
| 20260504184824 | 76 | 207 | 0.0 | 0.0 | 0.00 | 0.02 | 0.02 | 48 | 1010.5 |
| 20260504184819 | 76 | 195 | 0.0 | 0.0 | 0.00 | 0.02 | 0.02 | 47 | 1010.4 |
| 20260504183818 | 75 | 192 | 0.0 | 0.0 | 0.00 | 0.02 | 0.02 | 49 | 1010.5 |
| 20260504183319 | 75 | 237 | 0.0 | 0.0 | 0.00 | 0.02 | 0.02 | 48 | 1010.6 |
| 20260504182819 | 75 | 197 | 0.0 | 0.0 | 0.00 | 0.02 | 0.02 | 50 | 1010.6 |
| 20260504182318 | 74 | 233 | 0.0 | 0.0 | 0.00 | 0.02 | 0.02 | 50 | 1010.7 |
| 20260504181820 | 74 | 229 | 0.0 | 0.0 | 0.00 | 0.02 | 0.02 | 51 | 1010.7 |
| 20260504181319 | 74 | 221 | 0.0 | 0.0 | 0.00 | 0.02 | 0.02 | 51 | 1010.8 |
| 20260504180818 | 74 | 181 | 0.0 | 0.0 | 0.00 | 0.02 | 0.02 | 50 | 1010.8 |
| 20260504180318 | 73 | 224 | 0.0 | 0.0 | 0.00 | 0.02 | 0.02 | 51 | 1010.9 |
| 20260504175819 | 73 | 167 | 0.0 | 0.0 | 0.00 | 0.02 | 0.02 | 50 | 1010.9 |
| 20260504175319 | 73 | 197 | 0.0 | 0.0 | 0.00 | 0.02 | 0.02 | 51 | 1010.9 |
| 20260504174818 | 73 | 167 | 0.0 | 0.0 | 0.00 | 0.02 | 0.02 | 52 | 1010.9 |
| 20260504174318 | 73 | 200 | 0.0 | 0.0 | 0.00 | 0.02 | 0.02 | 51 | 1011.0 |
| 20260504173818 | 72 | 188 | 0.0 | 0.0 | 0.00 | 0.02 | 0.02 | 52 | 1011.0 |
| 20260504173322 | 72 | 172 | 0.0 | 0.0 | 0.00 | 0.02 | 0.02 | 53 | 1011.1 |
| 20260504173316 | 72 | 193 | 0.0 | 0.0 | 0.00 | 0.02 | 0.02 | 52 | 1011.1 |
| 20260504172320 | 71 | 215 | 0.0 | 0.0 | 0.00 | 0.02 | 0.02 | 53 | 1011.3 |
| 20260504172316 | 72 | 205 | 0.0 | 0.0 | 0.00 | 0.02 | 0.02 | 53 | 1011.2 |
| 20260504171316 | 71 | 217 | 0.0 | 0.0 | 0.00 | 0.02 | 0.02 | 54 | 1011.3 |
| 20260504170816 | 70 | 207 | 0.0 | 0.0 | 0.00 | 0.02 | 0.02 | 54 | 1011.4 |
| 20260504170321 | 70 | 214 | 0.0 | 0.0 | 0.00 | 0.02 | 0.02 | 52 | 1011.5 |
| 20260504160314 | 68 | 184 | 0.0 | 0.0 | 0.00 | 0.02 | 0.02 | 55 | 1012.1 |